createdAt,value
2018-06-04T00:04:56.690Z,16.60
2018-06-04T00:09:59.738Z,16.60
2018-06-04T00:15:02.785Z,16.60
2018-06-04T00:20:05.877Z,16.60
2018-06-04T00:25:08.925Z,16.40
2018-06-04T00:30:12.942Z,16.30
2018-06-04T00:35:15.969Z,16.30
2018-06-04T00:40:19.950Z,16.10
2018-06-04T00:45:42.694Z,16.10
2018-06-04T00:50:45.977Z,16.20
2018-06-04T00:56:00.309Z,16.20
2018-06-04T01:01:03.373Z,16.20
2018-06-04T01:06:06.430Z,16.20
2018-06-04T01:11:10.014Z,16.10
2018-06-04T01:16:13.079Z,15.90
2018-06-04T01:21:17.154Z,15.90
2018-06-04T01:26:43.945Z,15.90
2018-06-04T01:31:47.433Z,15.90
2018-06-04T01:37:16.345Z,15.80
2018-06-04T01:42:19.877Z,15.80
2018-06-04T01:47:22.929Z,15.80
2018-06-04T01:52:25.977Z,15.80
2018-06-04T01:57:29.033Z,15.70
2018-06-04T02:02:39.561Z,15.60
2018-06-04T02:07:42.584Z,15.40
2018-06-04T02:12:45.649Z,15.30
2018-06-04T02:17:49.613Z,15.30
2018-06-04T02:27:56.026Z,15.20
2018-06-04T02:33:10.858Z,15.10
2018-06-04T02:38:14.222Z,15.10
2018-06-04T02:43:17.546Z,15.00
2018-06-04T02:53:23.434Z,14.80
2018-06-04T02:58:27.189Z,14.70
2018-06-04T03:03:30.487Z,14.70
2018-06-04T03:08:33.610Z,14.70
2018-06-04T03:13:36.648Z,14.70
2018-06-04T03:18:39.694Z,14.70
2018-06-04T03:23:42.754Z,14.60
2018-06-04T03:28:45.809Z,14.50
2018-06-04T03:38:51.800Z,14.50
2018-06-04T03:43:54.910Z,14.50
2018-06-04T03:48:57.953Z,14.50
2018-06-04T03:54:01.045Z,14.50
2018-06-04T04:04:07.926Z,14.50
2018-06-04T04:09:11.066Z,14.50
2018-06-04T04:14:14.125Z,14.60
2018-06-04T04:19:17.183Z,14.80
2018-06-04T04:24:20.219Z,14.90
2018-06-04T04:29:23.289Z,15.10
2018-06-04T04:34:26.436Z,15.20
2018-06-04T04:39:30.368Z,15.30
2018-06-04T04:44:33.406Z,15.60
2018-06-04T04:49:48.524Z,15.90
2018-06-04T04:54:51.581Z,16.20
2018-06-04T04:59:54.649Z,16.30
2018-06-04T05:04:57.681Z,16.50
2018-06-04T05:10:00.758Z,16.80
2018-06-04T05:15:03.813Z,17.10
2018-06-04T05:20:08.035Z,17.40
2018-06-04T05:25:11.102Z,17.70
2018-06-04T05:30:14.153Z,18.00
2018-06-04T05:35:17.193Z,18.30
2018-06-04T05:40:20.247Z,18.60
2018-06-04T05:45:23.298Z,18.90
2018-06-04T05:50:26.873Z,19.10
2018-06-04T05:55:29.957Z,19.40
2018-06-04T06:05:52.556Z,19.80
2018-06-04T06:10:55.594Z,20.00
2018-06-04T06:21:20.606Z,20.20
2018-06-04T06:26:23.890Z,20.50
2018-06-04T06:31:27.162Z,20.70
2018-06-04T06:36:30.209Z,20.80
2018-06-04T06:41:33.263Z,21.00
2018-06-04T06:46:36.309Z,21.30
2018-06-04T06:51:40.070Z,21.40
2018-06-04T06:56:43.117Z,21.70
2018-06-04T07:01:53.649Z,21.90
2018-06-04T07:06:56.658Z,22.00
2018-06-04T07:12:00.093Z,22.30
2018-06-04T07:17:03.146Z,22.50
2018-06-04T07:22:06.706Z,22.80
2018-06-04T07:27:29.610Z,23.00
2018-06-04T07:32:32.957Z,23.10
2018-06-04T07:37:36.335Z,23.30
2018-06-04T07:42:39.509Z,23.50
2018-06-04T07:47:42.624Z,23.80
2018-06-04T07:52:45.658Z,24.00
2018-06-04T07:57:48.702Z,24.20
2018-06-04T08:02:51.813Z,24.30
2018-06-04T08:07:54.866Z,24.40
2018-06-04T08:12:58.964Z,24.60
2018-06-04T08:18:02.230Z,24.70
2018-06-04T08:23:05.328Z,24.80
2018-06-04T08:28:08.381Z,24.70
2018-06-04T08:33:11.441Z,24.70
2018-06-04T08:38:15.036Z,24.60
2018-06-04T08:43:26.231Z,24.70
2018-06-04T08:48:29.266Z,24.90
2018-06-04T08:53:32.318Z,25.20
2018-06-04T08:58:35.366Z,25.40
2018-06-04T09:03:52.836Z,25.60
2018-06-04T09:09:20.609Z,25.70
2018-06-04T09:14:23.654Z,25.60
2018-06-04T09:19:27.482Z,25.50
2018-06-04T09:24:30.598Z,25.30
2018-06-04T09:29:33.729Z,25.20
2018-06-04T09:34:36.791Z,25.20
2018-06-04T09:39:40.325Z,25.40
2018-06-04T09:44:43.629Z,25.60
2018-06-04T09:49:46.670Z,25.60
2018-06-04T09:54:49.714Z,25.70
2018-06-04T09:59:52.758Z,25.80
2018-06-04T10:04:55.873Z,26.00
2018-06-04T10:09:58.971Z,26.00
2018-06-04T10:15:02.552Z,26.00
2018-06-04T10:20:05.890Z,25.90
2018-06-04T10:25:08.977Z,26.00
2018-06-04T10:30:12.218Z,26.20
2018-06-04T10:35:15.435Z,26.40
2018-06-04T10:40:18.474Z,26.40
2018-06-04T10:45:21.521Z,26.30
2018-06-04T10:50:24.579Z,26.40
2018-06-04T10:55:27.625Z,26.40
2018-06-04T11:00:30.694Z,26.40
2018-06-04T11:05:50.223Z,26.30
2018-06-04T11:10:53.454Z,26.30
2018-06-04T11:15:57.644Z,26.30
2018-06-04T11:21:00.741Z,26.10
2018-06-04T11:26:03.836Z,25.80
2018-06-04T11:31:07.218Z,25.90
2018-06-04T11:36:10.298Z,26.00
2018-06-04T11:41:13.558Z,26.20
2018-06-04T11:46:16.766Z,26.30
2018-06-04T11:51:20.055Z,26.40
2018-06-04T11:56:23.315Z,26.40
2018-06-04T12:01:26.353Z,26.40
2018-06-04T12:06:30.216Z,26.60
2018-06-04T12:11:33.328Z,26.70
2018-06-04T12:16:36.372Z,26.80
2018-06-04T12:22:00.356Z,26.80
2018-06-04T12:27:03.410Z,26.60
2018-06-04T12:32:07.119Z,26.40
2018-06-04T12:37:10.161Z,26.40
2018-06-04T12:42:13.204Z,26.40
2018-06-04T12:47:16.289Z,26.60
2018-06-04T12:52:19.351Z,26.70
2018-06-04T12:57:22.518Z,26.50
2018-06-04T13:02:25.565Z,26.10
2018-06-04T13:07:58.914Z,25.90
2018-06-04T13:13:02.158Z,25.90
2018-06-04T13:18:23.945Z,25.80
2018-06-04T13:23:27.005Z,25.80
2018-06-04T13:28:41.351Z,25.80
2018-06-04T13:33:44.445Z,26.00
2018-06-04T13:38:47.509Z,26.10
2018-06-04T13:43:50.557Z,26.10
2018-06-04T13:48:53.605Z,26.00
2018-06-04T13:54:03.205Z,25.90
2018-06-04T13:59:06.263Z,25.80
2018-06-04T14:04:09.308Z,25.70
2018-06-04T14:09:12.376Z,25.70
2018-06-04T14:19:18.476Z,25.60
2018-06-04T14:24:21.521Z,25.40
2018-06-04T14:29:28.962Z,25.40
2018-06-04T14:34:34.790Z,25.40
2018-06-04T14:39:37.997Z,25.30
2018-06-04T14:44:41.044Z,25.30
2018-06-04T14:49:44.101Z,25.40
2018-06-04T14:54:47.159Z,25.30
2018-06-04T14:59:50.294Z,25.30
2018-06-04T15:04:53.363Z,25.30
2018-06-04T15:10:03.285Z,25.40
2018-06-04T15:15:06.642Z,25.30
2018-06-04T15:20:09.685Z,25.30
2018-06-04T15:25:12.736Z,25.20
2018-06-04T15:30:15.814Z,25.10
2018-06-04T15:40:21.829Z,25.40
2018-06-04T15:50:27.749Z,25.40
2018-06-04T15:55:30.808Z,25.50
2018-06-04T16:00:33.853Z,25.60
2018-06-04T16:05:36.974Z,25.70
2018-06-04T16:11:03.492Z,25.80
2018-06-04T16:16:07.093Z,25.80
2018-06-04T16:21:10.190Z,25.80
2018-06-04T16:26:13.317Z,25.80
2018-06-04T16:31:16.397Z,25.60
2018-06-04T16:36:19.466Z,25.50
2018-06-04T16:41:22.520Z,25.20
2018-06-04T16:46:34.958Z,25.10
2018-06-04T16:51:40.628Z,24.90
2018-06-04T16:56:43.672Z,24.70
2018-06-04T17:01:59.901Z,24.70
2018-06-04T17:07:02.941Z,24.50
2018-06-04T17:12:05.994Z,24.30
2018-06-04T17:17:09.057Z,24.20
2018-06-04T17:22:12.137Z,24.20
2018-06-04T17:27:15.191Z,24.20
2018-06-04T17:32:18.303Z,24.00
2018-06-04T17:37:21.369Z,24.00
2018-06-04T17:42:24.457Z,23.90
2018-06-04T17:47:33.593Z,23.80
2018-06-04T17:52:36.661Z,23.80
2018-06-04T17:57:39.801Z,23.80
2018-06-04T18:02:45.166Z,23.60
2018-06-04T18:07:50.994Z,23.40
2018-06-04T18:12:54.264Z,23.30
2018-06-04T18:17:58.824Z,23.20
2018-06-04T18:23:02.305Z,23.10
2018-06-04T18:28:30.333Z,23.00
2018-06-04T18:33:37.592Z,22.90
2018-06-04T18:38:40.811Z,22.70
2018-06-04T18:43:44.137Z,22.60
2018-06-04T18:48:47.217Z,22.50
2018-06-04T18:53:50.337Z,22.30
2018-06-04T18:58:53.396Z,22.20
2018-06-04T19:03:56.468Z,22.00
2018-06-04T19:09:02.643Z,22.00
2018-06-04T19:14:05.969Z,21.80
2018-06-04T19:24:14.549Z,21.70
2018-06-04T19:29:17.705Z,21.60
2018-06-04T19:34:20.772Z,21.40
2018-06-04T19:39:24.096Z,21.30
2018-06-04T19:44:34.569Z,21.20
2018-06-04T19:50:11.287Z,21.10
2018-06-04T19:55:14.341Z,21.00
2018-06-04T20:00:17.397Z,20.90
2018-06-04T20:05:20.453Z,20.80
2018-06-04T20:10:23.520Z,20.70
2018-06-04T20:15:26.637Z,20.60
2018-06-04T20:20:29.765Z,20.40
2018-06-04T20:25:32.755Z,20.30
2018-06-04T20:30:35.846Z,20.20
2018-06-04T20:35:40.896Z,20.10
2018-06-04T20:40:43.953Z,19.90
2018-06-04T20:45:47.140Z,19.90
2018-06-04T20:50:50.197Z,19.80
2018-06-04T20:56:04.343Z,19.60
2018-06-04T21:01:07.533Z,19.50
2018-06-04T21:06:10.592Z,19.30
2018-06-04T21:11:13.655Z,19.20
2018-06-04T21:16:16.714Z,19.10
2018-06-04T21:21:19.796Z,19.00
2018-06-04T21:26:22.937Z,19.00
2018-06-04T21:31:26.305Z,18.90
2018-06-04T21:36:29.369Z,18.80
2018-06-04T21:41:32.428Z,18.80
2018-06-04T21:46:35.593Z,18.70
2018-06-04T21:51:38.649Z,18.60
2018-06-04T21:56:46.961Z,18.60
2018-06-04T22:01:50.006Z,18.50
2018-06-04T22:06:53.120Z,18.50
2018-06-04T22:11:56.177Z,18.40
2018-06-04T22:16:59.278Z,18.40
2018-06-04T22:22:02.296Z,18.30
2018-06-04T22:27:05.450Z,18.30
2018-06-04T22:32:08.449Z,18.20
2018-06-04T22:37:11.495Z,18.10
2018-06-04T22:42:14.540Z,18.10
2018-06-04T22:47:17.598Z,18.00
2018-06-04T22:52:20.666Z,17.80
2018-06-04T22:57:23.733Z,17.80
2018-06-04T23:02:27.868Z,17.70
2018-06-04T23:07:31.030Z,17.70
2018-06-04T23:12:34.076Z,17.60
2018-06-04T23:17:37.134Z,17.40
2018-06-04T23:22:40.196Z,17.40
2018-06-04T23:27:43.243Z,17.30
2018-06-04T23:32:46.300Z,17.10
2018-06-04T23:37:49.360Z,17.00
2018-06-04T23:42:52.421Z,16.80
2018-06-04T23:47:55.469Z,16.70
2018-06-04T23:52:58.569Z,16.80
2018-06-04T23:58:01.633Z,16.80
